Time;durP1;ratioP1;P1;durP2;ratioP2;P2;SDS_P1;SDS_P2;PMS_P1;PMS_P2;Temp;Humidity;BMP_temperature;BMP_pressure;BME280_temperature;BME280_humidity;BME280_pressure;Samples;Min_cycle;Max_cycle;Signal;HPM_P1;HPM_P2
2023/09/17 00:00:46;;;;;;;24.03;21.67;;;;;;;18.47;98.34;93377.56;5069579;28;20253;-90
2023/09/17 00:03:12;;;;;;;25.17;22.43;;;;;;;18.50;98.84;93388.31;5068374;28;20237;-89
2023/09/17 00:05:37;;;;;;;24.70;20.47;;;;;;;18.55;97.16;93374.19;5069302;28;20200;-89
2023/09/17 00:08:03;;;;;;;21.70;19.43;;;;;;;18.65;94.57;93373.88;5068821;28;20235;-89
2023/09/17 00:10:30;;;;;;;21.30;19.10;;;;;;;18.72;92.37;93366.25;5068885;28;20236;-89
2023/09/17 00:12:56;;;;;;;21.03;18.87;;;;;;;18.75;90.61;93366.44;5070979;28;20228;-87
2023/09/17 00:15:25;;;;;;;18.30;16.63;;;;;;;18.72;90.14;93361.72;5076199;28;20177;-88
2023/09/17 00:17:50;;;;;;;22.50;17.70;;;;;;;18.52;91.01;93369.50;5073448;28;20363;-88
2023/09/17 00:20:16;;;;;;;19.53;17.50;;;;;;;18.61;90.45;93367.66;5067963;28;20194;-87
2023/09/17 00:22:41;;;;;;;16.97;15.43;;;;;;;18.63;90.10;93357.53;5067931;28;20190;-88
2023/09/17 00:25:07;;;;;;;16.53;15.10;;;;;;;18.68;88.05;93360.03;5066949;28;20938;-88
2023/09/17 00:27:33;;;;;;;16.40;14.90;;;;;;;18.56;87.49;93362.50;5069415;28;20200;-86
2023/09/17 00:29:58;;;;;;;15.57;14.07;;;;;;;18.53;86.21;93334.81;5070305;28;20212;-88
2023/09/17 00:32:24;;;;;;;15.77;14.30;;;;;;;18.46;87.34;93354.88;5069129;28;20252;-81
2023/09/17 00:34:50;;;;;;;15.00;13.83;;;;;;;18.51;86.60;93336.19;5070447;28;20278;-81
2023/09/17 00:37:16;;;;;;;15.00;13.80;;;;;;;18.54;86.33;93348.78;5072741;28;20186;-82
2023/09/17 00:39:41;;;;;;;15.07;13.67;;;;;;;18.53;86.85;93348.03;5072743;28;20228;-85
2023/09/17 00:42:07;;;;;;;16.67;13.77;;;;;;;18.54;86.98;93352.22;5073675;28;20175;-87
2023/09/17 00:44:32;;;;;;;16.83;15.23;;;;;;;18.51;86.92;93346.78;5089892;28;20226;-85
2023/09/17 00:47:00;;;;;;;17.87;16.27;;;;;;;18.42;88.29;93353.91;5076980;28;20188;-87
2023/09/17 00:49:27;;;;;;;17.87;16.07;;;;;;;18.32;89.22;93349.66;5073385;28;20223;-87
2023/09/17 00:51:53;;;;;;;19.33;17.37;;;;;;;18.31;89.33;93349.97;5072420;28;20188;-87
2023/09/17 00:54:21;;;;;;;18.53;16.67;;;;;;;18.47;88.60;93348.47;5083254;28;20263;-88
2023/09/17 00:56:47;;;;;;;19.73;17.90;;;;;;;18.35;89.66;93356.97;5073420;28;20213;-87
2023/09/17 00:59:13;;;;;;;19.87;17.93;;;;;;;18.31;90.40;93347.31;5072411;28;20219;-87
2023/09/17 01:01:39;;;;;;;20.97;18.90;;;;;;;18.17;90.94;93346.66;5072611;28;20204;-87
2023/09/17 01:04:07;;;;;;;22.30;19.97;;;;;;;18.24;90.85;93354.94;5072216;28;20217;-87
2023/09/17 01:06:33;;;;;;;25.80;20.90;;;;;;;18.17;91.76;93352.72;5072123;28;20182;-88
2023/09/17 01:08:59;;;;;;;22.77;20.37;;;;;;;18.14;91.77;93347.28;5066678;28;20301;-88
2023/09/17 01:11:24;;;;;;;29.47;21.00;;;;;;;18.16;92.02;93353.03;5072729;28;20174;-88
2023/09/17 01:13:58;;;;;;;23.97;21.47;;;;;;;18.22;91.11;93341.25;5071735;28;20253;-87
2023/09/17 01:16:26;;;;;;;24.93;22.03;;;;;;;18.21;91.16;93350.25;5072392;28;21745;-87
2023/09/17 01:18:53;;;;;;;22.37;19.97;;;;;;;18.26;91.13;93344.81;5072408;28;20222;-82
2023/09/17 01:21:38;;;;;;;25.67;21.83;;;;;;;18.17;91.50;93347.44;5071865;28;20182;-86
2023/09/17 01:24:40;;;;;;;23.83;21.27;;;;;;;18.37;90.56;93346.09;5071620;28;20222;-86
2023/09/17 01:27:06;;;;;;;25.30;22.13;;;;;;;18.21;90.84;93343.09;5070746;28;20185;-86
2023/09/17 01:29:40;;;;;;;27.03;22.37;;;;;;;18.16;91.53;93340.63;5071045;28;20751;-86
2023/09/17 01:32:07;;;;;;;25.20;21.77;;;;;;;18.32;90.68;93343.63;5071896;28;20187;-83
2023/09/17 01:34:37;;;;;;;24.97;22.00;;;;;;;18.25;91.05;93345.91;5071588;28;20219;-84
2023/09/17 01:37:16;;;;;;;26.73;23.33;;;;;;;18.07;92.78;93346.97;5071602;28;20183;-86
2023/09/17 01:39:47;;;;;;;28.73;23.70;;;;;;;18.09;92.71;93342.91;5061849;28;20231;-87
2023/09/17 01:42:14;;;;;;;29.23;22.80;;;;;;;17.94;93.97;93338.03;5072052;28;20257;-87
2023/09/17 01:44:40;;;;;;;30.53;24.63;;;;;;;17.84;97.25;93340.94;5077320;28;20251;-86
2023/09/17 01:47:06;;;;;;;28.43;23.60;;;;;;;17.92;96.54;93334.91;5082448;28;21046;-87
2023/09/17 01:49:33;;;;;;;30.43;25.67;;;;;;;17.87;95.93;93327.13;5070973;28;20214;-87
2023/09/17 01:51:59;;;;;;;32.73;23.63;;;;;;;17.95;96.76;93349.38;5071206;28;20189;-83
2023/09/17 01:54:25;;;;;;;29.20;25.97;;;;;;;17.85;97.49;93353.09;5070878;28;20222;-83
2023/09/17 01:56:51;;;;;;;25.97;23.00;;;;;;;17.76;97.80;93344.31;5071385;28;20187;-85
2023/09/17 01:59:16;;;;;;;28.60;25.20;;;;;;;17.82;98.73;93345.00;5070748;28;20222;-87
2023/09/17 02:01:45;;;;;;;29.10;24.97;;;;;;;17.54;100.00;93325.91;5071018;28;20174;-85
2023/09/17 02:04:10;;;;;;;31.07;25.40;;;;;;;17.73;100.00;93344.94;5070883;28;20241;-87
2023/09/17 02:06:36;;;;;;;32.40;26.07;;;;;;;17.51;100.00;93340.47;5070668;28;20204;-86
2023/09/17 02:09:08;;;;;;;29.30;24.63;;;;;;;17.67;100.00;93337.44;5069926;28;20215;-85
2023/09/17 02:11:33;;;;;;;35.53;26.53;;;;;;;17.71;100.00;93357.69;5070649;28;20178;-87
2023/09/17 02:13:59;;;;;;;32.63;25.53;;;;;;;17.62;100.00;93338.34;5070941;28;20221;-85
2023/09/17 02:16:24;;;;;;;36.57;26.73;;;;;;;17.59;100.00;93342.41;5086048;28;20713;-86
2023/09/17 02:18:54;;;;;;;30.73;25.13;;;;;;;17.70;100.00;93352.72;5078217;28;20240;-86
2023/09/17 02:21:19;;;;;;;28.73;23.43;;;;;;;17.57;100.00;93355.09;5071027;28;20191;-87
2023/09/17 02:23:45;;;;;;;32.80;26.20;;;;;;;17.66;100.00;93357.03;5070569;28;20234;-86
2023/09/17 02:26:11;;;;;;;33.30;27.13;;;;;;;17.67;100.00;93358.56;5070813;28;20173;-86
2023/09/17 02:28:36;;;;;;;33.90;27.80;;;;;;;17.63;100.00;93362.91;5080000;28;20221;-87
2023/09/17 02:31:02;;;;;;;37.77;27.47;;;;;;;17.73;100.00;93352.84;5083199;28;20712;-86
2023/09/17 02:33:29;;;;;;;36.90;28.40;;;;;;;17.59;100.00;93352.97;5070207;28;20291;-82
2023/09/17 02:35:55;;;;;;;39.33;28.67;;;;;;;17.47;100.00;93360.66;5070597;28;20189;-86
2023/09/17 02:38:20;;;;;;;36.27;27.90;;;;;;;17.51;100.00;93360.81;5070347;28;20231;-86
2023/09/17 02:40:46;;;;;;;40.80;28.73;;;;;;;17.65;100.00;93355.47;5070551;28;20958;-85
2023/09/17 02:43:11;;;;;;;37.63;27.73;;;;;;;17.72;100.00;93356.59;5070623;28;20225;-86
2023/09/17 02:45:37;;;;;;;37.60;26.33;;;;;;;17.40;100.00;93354.22;5070518;28;20177;-86
2023/09/17 02:48:02;;;;;;;33.80;25.57;;;;;;;17.54;100.00;93349.69;5072064;28;20243;-85
2023/09/17 02:50:27;;;;;;;30.13;25.47;;;;;;;17.56;100.00;93348.28;5066440;28;20181;-86
2023/09/17 02:52:53;;;;;;;34.07;25.60;;;;;;;17.58;100.00;93350.63;5069770;28;20221;-86
2023/09/17 02:55:18;;;;;;;34.23;26.63;;;;;;;17.54;100.00;93341.75;5069808;28;20181;-85
2023/09/17 02:57:44;;;;;;;28.40;24.87;;;;;;;17.50;100.00;93330.22;5069105;28;20844;-85
2023/09/17 03:00:10;;;;;;;36.07;24.87;;;;;;;17.50;100.00;93330.22;5070270;28;20186;-86
2023/09/17 03:02:38;;;;;;;29.97;25.00;;;;;;;17.46;100.00;93331.91;5069885;28;20226;-86
2023/09/17 03:05:03;;;;;;;27.67;24.30;;;;;;;17.52;100.00;93328.84;5069971;28;20191;-88
2023/09/17 03:07:29;;;;;;;28.13;23.43;;;;;;;17.11;100.00;93322.19;5069489;28;20185;-86
2023/09/17 03:09:59;;;;;;;35.90;27.03;;;;;;;17.04;100.00;93322.59;5074319;28;20187;-87
2023/09/17 03:12:24;;;;;;;35.93;27.00;;;;;;;17.25;100.00;93326.34;5081742;28;20246;-86
2023/09/17 03:14:51;;;;;;;33.20;25.50;;;;;;;17.39;100.00;93318.31;5076599;28;20225;-87
2023/09/17 03:17:17;;;;;;;30.63;25.47;;;;;;;17.42;100.00;93323.78;5073852;28;20192;-86
2023/09/17 03:19:42;;;;;;;27.03;24.10;;;;;;;17.43;100.00;93319.31;5070093;28;20217;-87
2023/09/17 03:22:07;;;;;;;27.87;23.93;;;;;;;17.07;100.00;93314.13;5070102;28;20190;-86
2023/09/17 03:24:33;;;;;;;30.13;24.43;;;;;;;16.90;100.00;93321.88;5065176;28;20214;-87
2023/09/17 03:26:58;;;;;;;27.30;23.47;;;;;;;16.82;100.00;93321.84;5062552;28;20201;-87
2023/09/17 03:29:24;;;;;;;26.83;23.53;;;;;;;17.10;100.00;93334.63;5064897;28;20222;-87
2023/09/17 03:31:50;;;;;;;27.00;23.43;;;;;;;17.15;100.00;93329.22;5062308;28;20185;-87
2023/09/17 03:34:15;;;;;;;32.23;24.57;;;;;;;17.15;100.00;93326.56;5074069;28;20286;-87
2023/09/17 03:36:40;;;;;;;33.23;25.50;;;;;;;17.20;100.00;93330.94;5080103;28;20184;-86
2023/09/17 03:39:06;;;;;;;30.97;25.87;;;;;;;17.29;100.00;93340.47;5070013;28;20251;-87
2023/09/17 03:41:32;;;;;;;28.40;24.40;;;;;;;17.18;100.00;93333.13;5071463;28;20215;-87
2023/09/17 03:43:57;;;;;;;30.60;25.37;;;;;;;17.22;100.00;93326.94;5068926;28;20738;-75
2023/09/17 03:46:23;;;;;;;31.33;26.43;;;;;;;17.27;100.00;93334.75;5069506;28;20196;-77
2023/09/17 03:48:48;;;;;;;29.67;24.40;;;;;;;17.21;100.00;93337.78;5068613;28;20216;-76
2023/09/17 03:51:13;;;;;;;31.23;24.90;;;;;;;17.21;100.00;93338.56;5068434;28;20786;-77
2023/09/17 03:53:39;;;;;;;32.67;26.47;;;;;;;17.20;100.00;93341.50;5068611;28;20280;-76
2023/09/17 03:56:05;;;;;;;29.57;23.93;;;;;;;17.13;100.00;93339.31;5069156;28;20185;-76
2023/09/17 03:58:30;;;;;;;26.10;22.50;;;;;;;17.15;100.00;93342.41;5068170;28;20248;-76
2023/09/17 04:00:56;;;;;;;29.03;24.13;;;;;;;17.19;100.00;93346.00;5069352;28;20186;-76
2023/09/17 04:03:21;;;;;;;31.07;24.73;;;;;;;17.27;100.00;93345.28;5068565;28;20248;-76
2023/09/17 04:05:49;;;;;;;29.33;25.03;;;;;;;16.81;100.00;93344.78;5069117;28;20216;-77
2023/09/17 04:08:15;;;;;;;29.20;23.87;;;;;;;16.98;100.00;93352.06;5066844;28;20320;-77
2023/09/17 04:10:41;;;;;;;26.97;24.07;;;;;;;17.01;100.00;93352.22;5068462;28;20177;-76
2023/09/17 04:13:08;;;;;;;28.47;25.47;;;;;;;17.02;100.00;93342.47;5068347;28;20232;-75
2023/09/17 04:15:33;;;;;;;29.23;23.73;;;;;;;17.11;100.00;93352.00;5068798;28;20177;-75
2023/09/17 04:17:59;;;;;;;27.70;24.57;;;;;;;17.24;100.00;93366.22;5068396;28;20285;-75
2023/09/17 04:20:27;;;;;;;29.03;24.70;;;;;;;17.12;100.00;93358.84;5068748;28;20186;-76
2023/09/17 04:22:52;;;;;;;29.37;23.43;;;;;;;17.19;100.00;93367.13;5068146;28;20226;-76
2023/09/17 04:25:19;;;;;;;24.70;22.10;;;;;;;17.24;100.00;93366.22;5069121;28;20196;-75
2023/09/17 04:27:47;;;;;;;25.30;22.57;;;;;;;17.19;100.00;93372.41;5068268;28;20181;-76
2023/09/17 04:30:14;;;;;;;27.00;22.47;;;;;;;17.24;100.00;93367.00;5069083;28;20192;-77
2023/09/17 04:32:42;;;;;;;29.23;24.97;;;;;;;17.19;100.00;93367.13;5066063;28;20251;-78
2023/09/17 04:35:10;;;;;;;24.60;21.53;;;;;;;17.22;100.00;93371.81;5067605;28;20186;-80
2023/09/17 04:37:37;;;;;;;27.37;23.27;;;;;;;17.15;100.00;93379.34;5068115;28;20181;-80
2023/09/17 04:40:13;;;;;;;26.67;22.50;;;;;;;17.20;100.00;93368.69;5068125;28;20189;-80
2023/09/17 04:42:40;;;;;;;26.03;22.83;;;;;;;17.32;100.00;93371.53;5062342;28;20190;-85
2023/09/17 04:45:08;;;;;;;27.60;24.20;;;;;;;17.30;100.00;93368.44;5062582;28;20212;-91
2023/09/17 04:47:34;;;;;;;25.97;23.13;;;;;;;17.24;100.00;93372.28;5067572;28;20198;-82
2023/09/17 04:50:00;;;;;;;27.93;22.87;;;;;;;17.32;100.00;93383.97;5054400;28;20200;-83
2023/09/17 04:52:26;;;;;;;27.60;22.87;;;;;;;17.43;100.00;93378.13;5065322;28;20202;-84
2023/09/17 04:54:51;;;;;;;25.37;22.67;;;;;;;17.49;100.00;93387.53;5067518;28;20249;-85
2023/09/17 04:57:17;;;;;;;28.63;24.53;;;;;;;17.17;100.00;93381.69;5066555;28;20182;-80
2023/09/17 04:59:42;;;;;;;27.80;24.80;;;;;;;17.28;100.00;93383.78;5078133;28;20265;-85
2023/09/17 05:02:07;;;;;;;29.03;23.43;;;;;;;17.56;100.00;93382.59;5067622;28;20205;-86
2023/09/17 05:04:33;;;;;;;27.90;23.93;;;;;;;17.48;100.00;93385.97;5064200;28;20232;-81
2023/09/17 05:06:59;;;;;;;26.47;23.67;;;;;;;17.60;100.00;93386.19;5065300;28;20187;-81
2023/09/17 05:09:25;;;;;;;27.00;24.00;;;;;;;17.68;100.00;93386.56;5062145;28;21036;-81
2023/09/17 05:11:51;;;;;;;26.13;23.33;;;;;;;17.57;100.00;93384.16;5055600;28;20182;-80
2023/09/17 05:14:16;;;;;;;23.70;20.93;;;;;;;17.99;100.00;93385.47;5066968;28;20249;-80
2023/09/17 05:16:41;;;;;;;28.20;24.03;;;;;;;17.95;100.00;93384.50;5069003;28;20186;-80
2023/09/17 05:19:07;;;;;;;27.13;22.80;;;;;;;18.05;100.00;93376.34;5060220;28;20228;-76
2023/09/17 05:21:32;;;;;;;28.27;23.13;;;;;;;18.10;100.00;93376.16;5065330;28;20187;-80
2023/09/17 05:23:57;;;;;;;31.10;24.47;;;;;;;17.95;100.00;93373.94;5063637;28;20249;-79
2023/09/17 05:26:23;;;;;;;27.80;24.00;;;;;;;18.25;100.00;93370.50;5068340;28;20191;-81
2023/09/17 05:28:49;;;;;;;28.17;24.17;;;;;;;18.34;100.00;93367.84;5069176;28;20215;-80
2023/09/17 05:31:14;;;;;;;39.37;26.60;;;;;;;18.37;100.00;93368.03;5068568;28;20250;-78
2023/09/17 05:33:40;;;;;;;35.33;26.90;;;;;;;18.53;100.00;93360.47;5065966;28;20240;-86
2023/09/17 05:36:05;;;;;;;35.63;25.33;;;;;;;18.72;100.00;93372.31;5070685;28;20176;-81
2023/09/17 05:38:31;;;;;;;37.97;26.27;;;;;;;18.83;100.00;93375.47;5074799;28;20230;-86
2023/09/17 05:40:56;;;;;;;35.63;26.20;;;;;;;18.86;100.00;93365.00;5064722;28;20188;-82
2023/09/17 05:43:24;;;;;;;37.70;27.03;;;;;;;19.04;100.00;93356.00;5070534;28;20234;-82
2023/09/17 05:45:56;;;;;;;39.27;25.93;;;;;;;19.15;98.32;93357.25;5058440;28;20197;-84
2023/09/17 05:48:22;;;;;;;32.10;24.43;;;;;;;19.50;96.76;93363.31;5062327;28;20231;-85
2023/09/17 05:50:49;;;;;;;34.50;24.57;;;;;;;19.76;95.18;93365.91;5062901;28;20202;-85
2023/09/17 05:53:15;;;;;;;35.40;23.97;;;;;;;20.13;92.82;93370.44;5068119;28;20247;-85
2023/09/17 05:55:40;;;;;;;32.37;25.53;;;;;;;20.37;92.37;93365.38;5062415;28;20197;-84
2023/09/17 05:58:05;;;;;;;31.23;23.67;;;;;;;20.81;88.84;93367.44;5062300;28;20287;-81
2023/09/17 06:00:31;;;;;;;35.20;24.77;;;;;;;20.77;89.40;93373.72;5069070;28;20195;-85
2023/09/17 06:02:56;;;;;;;27.30;22.37;;;;;;;21.16;86.77;93389.25;5077087;28;20232;-76
2023/09/17 06:05:21;;;;;;;30.10;23.17;;;;;;;21.15;90.97;93385.84;5069394;28;20243;-87
2023/09/17 06:07:47;;;;;;;28.93;22.07;;;;;;;21.45;86.57;93392.63;5068036;28;20254;-76
2023/09/17 06:10:12;;;;;;;31.15;23.58;;;;;;;20.97;88.97;93399.53;5066724;28;20203;-86
2023/09/17 06:12:38;;;;;;;30.60;22.57;;;;;;;20.90;87.94;93399.28;5063625;28;20229;-77
2023/09/17 06:15:04;;;;;;;27.25;20.67;;;;;;;21.00;86.82;93401.56;5064984;28;20203;-74
2023/09/17 06:17:29;;;;;;;28.10;20.67;;;;;;;20.56;88.74;93390.41;5068275;28;20184;-76
2023/09/17 06:19:55;;;;;;;29.17;21.90;;;;;;;20.34;91.50;93392.56;5060514;28;20271;-75
2023/09/17 06:22:20;;;;;;;32.60;23.70;;;;;;;19.86;95.12;93390.19;5067643;28;20336;-81
2023/09/17 06:24:46;;;;;;;32.27;23.60;;;;;;;19.98;94.65;93395.63;5067441;28;20240;-82
2023/09/17 06:27:11;;;;;;;35.45;24.70;;;;;;;20.15;93.08;93389.50;5070486;28;20174;-84
2023/09/17 06:29:37;;;;;;;27.58;22.98;;;;;;;20.33;91.54;93397.06;5051038;28;20217;-87
2023/09/17 06:32:03;;;;;;;34.00;25.33;;;;;;;20.21;92.55;93361.72;5062675;28;20193;-84
2023/09/17 06:34:29;;;;;;;30.20;24.97;;;;;;;20.43;90.93;93415.31;5064910;28;20227;-85
2023/09/17 06:36:54;;;;;;;28.33;22.98;;;;;;;20.52;91.52;93410.72;5066153;28;20919;-92
2023/09/17 06:39:20;;;;;;;25.33;20.38;;;;;;;20.73;89.28;93420.59;5069082;28;20229;-83
2023/09/17 06:41:46;;;;;;;28.60;20.90;;;;;;;20.69;92.37;93420.47;5071811;28;20189;-94
2023/09/17 06:44:11;;;;;;;28.33;19.65;;;;;;;21.11;86.75;93419.44;5069243;28;20255;-81
2023/09/17 06:46:37;;;;;;;24.70;19.33;;;;;;;21.01;87.26;93433.13;5068197;28;20188;-82
2023/09/17 06:49:03;;;;;;;20.17;18.02;;;;;;;21.13;85.55;93435.84;5064137;28;20252;-89
2023/09/17 06:51:29;;;;;;;22.05;18.75;;;;;;;20.73;86.44;93420.59;5059478;28;20197;-87
2023/09/17 06:53:54;;;;;;;25.40;19.85;;;;;;;21.06;86.24;93427.59;5064884;28;20775;-88
2023/09/17 06:56:23;;;;;;;20.02;17.98;;;;;;;21.17;84.87;93428.78;5067783;28;20204;-84
2023/09/17 06:58:49;;;;;;;24.50;19.85;;;;;;;21.35;84.68;93429.44;5064856;28;20281;-80
2023/09/17 07:01:14;;;;;;;28.13;21.70;;;;;;;21.57;84.48;93429.88;5057188;28;20181;-79
2023/09/17 07:03:39;;;;;;;30.25;20.73;;;;;;;21.79;83.65;93431.44;5063928;28;20246;-79
2023/09/17 07:06:05;;;;;;;27.33;20.63;;;;;;;21.47;83.74;93427.63;5058089;28;20257;-79
2023/09/17 07:08:33;;;;;;;28.30;20.88;;;;;;;21.39;85.01;93428.47;5067719;28;20230;-83
2023/09/17 07:10:59;;;;;;;27.80;22.48;;;;;;;21.50;85.43;93429.63;5059450;28;20200;-87
2023/09/17 07:13:24;;;;;;;39.00;25.23;;;;;;;21.43;85.68;93434.66;5068601;28;20236;-86
2023/09/17 07:15:49;;;;;;;31.42;22.02;;;;;;;21.55;84.84;93433.97;5066154;28;20190;-85
2023/09/17 07:18:15;;;;;;;32.47;22.77;;;;;;;21.53;84.74;93428.19;5067980;28;20254;-84
2023/09/17 07:20:40;;;;;;;33.05;24.05;;;;;;;21.69;84.22;93437.13;5065842;28;20173;-85
2023/09/17 07:23:08;;;;;;;29.23;22.85;;;;;;;21.51;84.06;93425.09;5067380;28;20226;-85
2023/09/17 07:25:33;;;;;;;30.58;22.77;;;;;;;21.42;84.56;93443.75;5062905;28;20179;-88
2023/09/17 07:28:04;;;;;;;30.50;22.88;;;;;;;21.47;84.95;93435.59;5066359;28;20263;-78
2023/09/17 07:30:34;;;;;;;30.10;22.75;;;;;;;21.45;84.07;93442.31;5057540;28;20195;-86
2023/09/17 07:33:00;;;;;;;28.23;21.83;;;;;;;21.28;85.48;93447.75;5068744;28;20231;-84
2023/09/17 07:35:25;;;;;;;28.70;22.02;;;;;;;21.23;85.46;93430.13;5068358;28;20210;-86
2023/09/17 07:37:51;;;;;;;27.93;21.20;;;;;;;21.32;86.00;93443.38;5061865;28;20224;-80
2023/09/17 07:40:16;;;;;;;26.65;21.20;;;;;;;21.28;85.79;93450.41;5062723;28;20250;-85
2023/09/17 07:42:42;;;;;;;30.75;22.83;;;;;;;21.40;85.44;93450.50;5066742;28;20195;-92
2023/09/17 07:45:08;;;;;;;28.45;21.38;;;;;;;21.29;85.03;93462.63;5063923;28;20190;-85
2023/09/17 07:47:33;;;;;;;29.27;23.27;;;;;;;21.07;86.30;93453.06;5067944;28;21595;-88
2023/09/17 07:49:58;;;;;;;32.00;21.95;;;;;;;20.95;86.67;93454.84;5066950;28;20171;-84
2023/09/17 07:52:24;;;;;;;31.88;22.92;;;;;;;21.20;86.59;93457.34;5066772;28;20183;-85
2023/09/17 07:54:49;;;;;;;28.30;22.42;;;;;;;21.29;86.20;93454.66;5070602;28;20230;-83
2023/09/17 07:57:15;;;;;;;30.30;21.97;;;;;;;21.52;84.28;93463.84;5072638;28;20188;-81
2023/09/17 07:59:40;;;;;;;24.67;21.33;;;;;;;21.61;83.33;93451.25;5064006;28;20247;-83
2023/09/17 08:02:06;;;;;;;29.80;20.25;;;;;;;21.79;82.41;93437.53;5068578;28;20966;-82
2023/09/17 08:04:32;;;;;;;26.92;20.67;;;;;;;21.77;82.27;93461.03;5066230;28;20243;-77
2023/09/17 08:06:59;;;;;;;30.20;22.45;;;;;;;21.56;84.33;93459.44;5073144;28;20188;-76
2023/09/17 08:09:25;;;;;;;26.60;21.65;;;;;;;21.56;83.97;93436.28;5056639;28;20225;-79
2023/09/17 08:11:50;;;;;;;29.63;22.65;;;;;;;21.70;84.12;93455.41;5066104;28;20211;-85
2023/09/17 08:14:16;;;;;;;24.88;20.92;;;;;;;21.73;82.45;93453.97;5068089;28;20264;-79
2023/09/17 08:16:41;;;;;;;25.98;20.70;;;;;;;21.62;83.41;93450.19;5066275;28;20177;-82
2023/09/17 08:19:07;;;;;;;32.33;22.88;;;;;;;21.93;83.09;93458.53;5066250;28;20228;-85
2023/09/17 08:21:33;;;;;;;30.30;22.08;;;;;;;21.99;81.50;93462.53;5066784;28;20174;-86
2023/09/17 08:23:59;;;;;;;29.58;21.75;;;;;;;22.08;81.35;93465.88;5067361;28;20230;-85
2023/09/17 08:26:28;;;;;;;29.77;21.55;;;;;;;22.39;80.39;93462.72;5067735;28;20259;-83
2023/09/17 08:29:00;;;;;;;30.70;21.27;;;;;;;22.45;79.15;93467.50;5067534;28;20238;-84
2023/09/17 08:31:26;;;;;;;26.92;20.48;;;;;;;22.33;79.23;93464.06;5056571;28;20217;-86
2023/09/17 08:33:52;;;;;;;29.25;21.80;;;;;;;22.01;80.53;93463.75;5067093;28;20225;-85
2023/09/17 08:36:21;;;;;;;23.42;19.88;;;;;;;22.06;80.96;93460.88;5066876;28;20193;-86
2023/09/17 08:38:50;;;;;;;28.77;21.25;;;;;;;22.03;82.15;93453.56;5078325;28;20213;-83
2023/09/17 08:41:18;;;;;;;26.80;22.60;;;;;;;22.03;81.29;93452.78;5066942;28;20185;-80
2023/09/17 08:43:45;;;;;;;25.52;20.38;;;;;;;22.10;80.50;93459.13;5066600;28;20214;-86
2023/09/17 08:46:11;;;;;;;25.10;18.92;;;;;;;22.11;80.33;93459.91;5066751;28;20285;-84
2023/09/17 08:48:36;;;;;;;27.13;21.02;;;;;;;22.10;80.12;93469.75;5072671;28;20214;-84
2023/09/17 08:51:03;;;;;;;28.50;21.73;;;;;;;21.98;80.35;93447.66;5067958;28;20181;-84
2023/09/17 08:53:32;;;;;;;27.15;21.45;;;;;;;21.92;80.56;93451.63;5077298;28;20221;-85
2023/09/17 08:55:59;;;;;;;27.17;20.35;;;;;;;21.91;79.93;93455.41;5070509;28;20190;-84
2023/09/17 08:58:38;;;;;;;27.70;21.67;;;;;;;21.85;80.96;93448.75;5071313;28;20272;-82
2023/09/17 09:01:06;;;;;;;24.63;19.90;;;;;;;21.65;81.99;93452.19;5071997;28;20212;-84
2023/09/17 09:03:34;;;;;;;27.23;20.48;;;;;;;21.74;82.55;93436.94;5071455;28;20210;-84
2023/09/17 09:06:01;;;;;;;24.58;21.73;;;;;;;21.81;81.35;93435.31;5072149;28;20192;-83
2023/09/17 09:08:28;;;;;;;26.38;21.52;;;;;;;21.81;82.36;93445.16;5076641;28;20221;-83
2023/09/17 09:10:54;;;;;;;25.95;20.80;;;;;;;21.85;82.19;93440.75;5073409;28;20187;-83
2023/09/17 09:13:21;;;;;;;27.13;22.05;;;;;;;21.88;81.89;93446.19;5071722;28;20290;-84
2023/09/17 09:15:47;;;;;;;31.55;24.02;;;;;;;21.87;82.54;93435.88;5071895;28;20200;-83
2023/09/17 09:18:13;;;;;;;28.17;22.08;;;;;;;22.05;80.53;93448.69;5058904;28;20223;-80
2023/09/17 09:20:40;;;;;;;24.30;20.73;;;;;;;21.99;80.76;93443.91;5071708;28;20194;-84
2023/09/17 09:23:06;;;;;;;28.27;23.15;;;;;;;21.64;83.14;93440.75;5073134;28;20230;-84
2023/09/17 09:25:31;;;;;;;27.08;22.38;;;;;;;21.95;81.80;93445.66;5072651;28;20199;-80
2023/09/17 09:28:04;;;;;;;29.27;22.45;;;;;;;22.11;80.97;93442.06;5075218;28;20272;-82
2023/09/17 09:30:29;;;;;;;27.90;22.15;;;;;;;22.07;81.16;93443.81;5072884;28;20213;-81
2023/09/17 09:32:56;;;;;;;30.50;21.50;;;;;;;22.20;80.40;93442.75;5087347;28;20228;-84
2023/09/17 09:35:22;;;;;;;28.70;22.30;;;;;;;22.29;80.14;93439.97;5085872;28;20176;-84
2023/09/17 09:37:48;;;;;;;24.83;20.38;;;;;;;22.15;78.98;93445.63;5081608;28;20233;-84
2023/09/17 09:40:14;;;;;;;31.25;22.38;;;;;;;22.16;80.32;93441.06;5071401;28;20199;-84
2023/09/17 09:42:42;;;;;;;26.73;22.13;;;;;;;22.20;78.90;93447.28;5070018;28;20208;-84
2023/09/17 09:45:13;;;;;;;26.52;22.02;;;;;;;22.27;79.89;93447.53;5072165;28;20238;-83
2023/09/17 09:47:39;;;;;;;30.80;22.73;;;;;;;22.29;79.77;93444.53;5077046;28;20186;-84
2023/09/17 09:50:05;;;;;;;35.25;23.85;;;;;;;22.14;80.91;93448.59;5072083;28;20185;-82
2023/09/17 09:52:30;;;;;;;26.83;23.52;;;;;;;22.18;80.27;93450.28;5084857;28;20192;-82
2023/09/17 09:54:55;;;;;;;27.13;21.90;;;;;;;21.98;80.50;93451.09;5075160;28;20245;-84
2023/09/17 09:57:25;;;;;;;28.25;21.92;;;;;;;22.07;79.56;93451.78;5071241;28;20187;-86
2023/09/17 09:59:51;;;;;;;36.75;23.77;;;;;;;21.84;83.20;93445.31;5070735;28;20280;-84
2023/09/17 10:02:20;;;;;;;30.05;22.42;;;;;;;22.04;81.78;93456.97;5071126;28;20627;-84
2023/09/17 10:04:46;;;;;;;25.65;22.27;;;;;;;22.22;78.59;93445.06;5081192;28;20274;-84
2023/09/17 10:07:17;;;;;;;26.48;20.05;;;;;;;22.06;78.84;93454.78;5080264;28;20180;-82
2023/09/17 10:09:42;;;;;;;28.33;22.60;;;;;;;22.11;79.53;93447.38;5069871;28;20219;-85
2023/09/17 10:12:08;;;;;;;27.42;21.20;;;;;;;22.29;77.89;93450.63;5070946;28;20254;-84
2023/09/17 10:14:38;;;;;;;27.20;22.95;;;;;;;22.26;79.19;93443.31;5070449;28;20252;-85
2023/09/17 10:17:06;;;;;;;29.02;23.23;;;;;;;22.24;79.57;93445.53;5080073;28;20204;-84
2023/09/17 10:19:33;;;;;;;30.00;24.58;;;;;;;22.72;80.08;93448.28;5072472;28;20233;-85
2023/09/17 10:22:00;;;;;;;31.80;22.83;;;;;;;22.95;77.31;93452.03;5070867;28;20196;-84
2023/09/17 10:24:26;;;;;;;29.05;21.95;;;;;;;23.18;76.08;93450.47;5070050;28;20218;-85
2023/09/17 10:26:54;;;;;;;29.38;23.48;;;;;;;22.87;77.64;93439.63;5070387;28;20266;-83
2023/09/17 10:29:21;;;;;;;29.15;22.65;;;;;;;23.48;74.94;93427.00;5080295;28;20212;-83
2023/09/17 10:31:47;;;;;;;28.15;23.23;;;;;;;23.83;73.05;93451.22;5070490;28;20195;-84
2023/09/17 10:34:15;;;;;;;32.65;23.23;;;;;;;23.43;75.57;93420.00;5069980;28;20232;-81
2023/09/17 10:36:42;;;;;;;29.63;22.95;;;;;;;23.50;75.46;93441.53;5070397;28;20257;-84
2023/09/17 10:39:10;;;;;;;28.90;22.65;;;;;;;23.81;73.03;93440.09;5074397;28;20247;-85
2023/09/17 10:41:39;;;;;;;26.70;21.35;;;;;;;24.27;70.63;93450.13;5077084;28;20192;-84
2023/09/17 10:44:06;;;;;;;25.27;22.10;;;;;;;23.32;74.42;93445.59;5069871;28;20219;-83
2023/09/17 10:46:32;;;;;;;27.80;21.92;;;;;;;23.04;75.21;93427.94;5069977;28;20247;-84
2023/09/17 10:48:58;;;;;;;26.90;21.90;;;;;;;23.92;72.09;93443.84;5072095;28;20266;-84
2023/09/17 10:51:26;;;;;;;27.80;22.08;;;;;;;23.86;73.00;93429.19;5069765;28;20184;-83
2023/09/17 10:53:52;;;;;;;31.98;23.08;;;;;;;24.03;71.69;93448.38;5056878;28;20309;-84
2023/09/17 10:56:18;;;;;;;29.63;23.10;;;;;;;23.93;74.36;93430.16;5068707;28;20214;-86
2023/09/17 10:58:45;;;;;;;26.00;21.65;;;;;;;24.00;70.71;93434.94;5069205;28;20214;-82
2023/09/17 11:01:14;;;;;;;27.88;22.75;;;;;;;23.94;71.80;93441.59;5069696;28;20184;-85
2023/09/17 11:03:46;;;;;;;27.17;22.20;;;;;;;23.37;74.55;93426.69;5072149;28;20284;-81
2023/09/17 11:06:16;;;;;;;28.00;22.70;;;;;;;23.74;72.83;93430.78;5055531;28;20199;-84
2023/09/17 11:08:46;;;;;;;27.90;22.38;;;;;;;23.46;73.16;93407.88;5058482;28;20214;-82
2023/09/17 11:11:16;;;;;;;27.50;23.58;;;;;;;23.48;72.31;93368.34;5065667;28;20214;-80